Time;durP1;ratioP1;P1;durP2;ratioP2;P2;SDS_P1;SDS_P2;PMS_P1;PMS_P2;Temp;Humidity;BMP_temperature;BMP_pressure;BME280_temperature;BME280_humidity;BME280_pressure;Samples;Min_cycle;Max_cycle;Signal;HPM_P1;HPM_P2
2023/11/27 00:00:35;;;;;;;1.95;1.83;;;;;;;;;;6281709;22;20180;-79
2023/11/27 00:03:02;;;;;;;1.70;1.60;;;;;;;;;;6281151;22;20251;-78
2023/11/27 00:05:30;;;;;;;2.67;2.47;;;;;;;;;;6281536;22;20195;-79
2023/11/27 00:07:57;;;;;;;2.72;2.53;;;;;;;;;;6281597;22;20268;-78
2023/11/27 00:10:26;;;;;;;4.22;3.42;;;;;;;;;;6282735;22;20231;-79
2023/11/27 00:12:58;;;;;;;2.15;1.98;;;;;;;;;;6284217;22;20271;-79
2023/11/27 00:15:26;;;;;;;2.08;1.88;;;;;;;;;;6283765;22;20161;-79
2023/11/27 00:17:53;;;;;;;1.73;1.63;;;;;;;;;;6283540;22;20192;-79
2023/11/27 00:20:21;;;;;;;1.50;1.50;;;;;;;;;;6283770;22;20565;-79
2023/11/27 00:22:48;;;;;;;1.40;1.30;;;;;;;;;;6284103;22;20246;-78
2023/11/27 00:25:16;;;;;;;2.17;2.08;;;;;;;;;;6283576;22;20564;-78
2023/11/27 00:27:45;;;;;;;1.88;1.77;;;;;;;;;;6283365;22;20196;-78
2023/11/27 00:30:14;;;;;;;2.17;2.00;;;;;;;;;;6282494;22;20279;-78
2023/11/27 00:32:41;;;;;;;1.70;1.60;;;;;;;;;;6282482;22;20196;-79
2023/11/27 00:35:09;;;;;;;1.70;1.60;;;;;;;;;;6282332;22;20256;-79
2023/11/27 00:37:36;;;;;;;1.73;1.63;;;;;;;;;;6282253;22;20571;-79
2023/11/27 00:40:05;;;;;;;2.15;1.95;;;;;;;;;;6281980;22;20247;-80
2023/11/27 00:42:32;;;;;;;1.30;1.30;;;;;;;;;;6282649;22;20204;-80
2023/11/27 00:45:01;;;;;;;1.10;1.10;;;;;;;;;;6283244;22;20172;-79
2023/11/27 00:47:29;;;;;;;2.15;1.95;;;;;;;;;;6281833;22;20647;-80
2023/11/27 00:49:57;;;;;;;2.08;1.90;;;;;;;;;;6282347;22;20176;-79
2023/11/27 00:52:24;;;;;;;1.95;1.85;;;;;;;;;;6282411;22;20233;-76
2023/11/27 00:54:52;;;;;;;1.80;1.70;;;;;;;;;;6281915;22;20233;-80
2023/11/27 00:57:19;;;;;;;2.20;2.00;;;;;;;;;;6281486;22;20255;-78
2023/11/27 00:59:47;;;;;;;1.50;1.40;;;;;;;;;;6281468;22;20222;-78
2023/11/27 01:02:16;;;;;;;2.00;1.90;;;;;;;;;;6280764;22;20204;-78
2023/11/27 01:04:43;;;;;;;1.45;1.35;;;;;;;;;;6281198;22;20342;-79
2023/11/27 01:07:10;;;;;;;1.35;1.25;;;;;;;;;;6282213;22;20251;-79
2023/11/27 01:09:39;;;;;;;1.10;1.00;;;;;;;;;;6282484;22;20372;-78
2023/11/27 01:12:07;;;;;;;3.60;2.42;;;;;;;;;;6282024;22;20660;-79
2023/11/27 01:14:35;;;;;;;1.30;1.30;;;;;;;;;;6282482;22;20233;-79
2023/11/27 01:17:02;;;;;;;2.00;1.83;;;;;;;;;;6281507;22;20187;-78
2023/11/27 01:19:31;;;;;;;2.35;2.15;;;;;;;;;;6281513;22;20279;-80
2023/11/27 01:21:59;;;;;;;1.85;1.75;;;;;;;;;;6282016;22;20652;-79
2023/11/27 01:24:26;;;;;;;2.70;2.38;;;;;;;;;;6282327;22;20208;-80
2023/11/27 01:26:54;;;;;;;2.40;2.25;;;;;;;;;;6281818;22;20248;-80
2023/11/27 01:29:21;;;;;;;2.00;1.90;;;;;;;;;;6281874;22;20249;-79
2023/11/27 01:31:49;;;;;;;3.65;3.28;;;;;;;;;;6282146;22;20180;-80
2023/11/27 01:34:17;;;;;;;3.42;2.78;;;;;;;;;;6282570;22;20196;-79
2023/11/27 01:36:46;;;;;;;2.65;2.45;;;;;;;;;;6282507;22;20183;-80
2023/11/27 01:39:14;;;;;;;2.65;2.45;;;;;;;;;;6282510;22;20274;-78
2023/11/27 01:41:42;;;;;;;2.85;2.65;;;;;;;;;;6282453;22;20239;-79
2023/11/27 01:44:09;;;;;;;2.20;2.08;;;;;;;;;;6282699;22;20209;-80
2023/11/27 01:46:44;;;;;;;2.10;2.00;;;;;;;;;;6282129;22;20176;-80
2023/11/27 01:49:12;;;;;;;2.55;2.35;;;;;;;;;;6282477;22;20250;-78
2023/11/27 01:51:42;;;;;;;2.45;2.25;;;;;;;;;;6282179;22;20204;-79
2023/11/27 01:54:11;;;;;;;3.42;3.13;;;;;;;;;;6282489;22;20192;-78
2023/11/27 01:56:39;;;;;;;2.45;1.88;;;;;;;;;;6282280;22;20231;-79
2023/11/27 01:59:08;;;;;;;2.35;1.95;;;;;;;;;;6282560;22;20220;-80
2023/11/27 02:01:35;;;;;;;2.00;1.90;;;;;;;;;;6282562;22;20386;-78
2023/11/27 02:04:04;;;;;;;1.55;1.45;;;;;;;;;;6281171;22;20259;-78
2023/11/27 02:06:31;;;;;;;2.13;2.00;;;;;;;;;;6281794;22;20232;-79
2023/11/27 02:08:59;;;;;;;2.08;1.92;;;;;;;;;;6280765;22;20274;-79
2023/11/27 02:11:28;;;;;;;3.40;1.95;;;;;;;;;;6282998;22;20256;-80
2023/11/27 02:13:56;;;;;;;1.85;1.75;;;;;;;;;;6282891;22;20446;-79
2023/11/27 02:16:23;;;;;;;1.42;1.33;;;;;;;;;;6282280;22;20270;-79
2023/11/27 02:18:51;;;;;;;1.92;1.77;;;;;;;;;;6282797;22;20215;-80
2023/11/27 02:21:19;;;;;;;1.70;1.60;;;;;;;;;;6282053;22;20247;-79
2023/11/27 02:23:48;;;;;;;1.70;1.60;;;;;;;;;;6281916;22;20246;-78
2023/11/27 02:26:16;;;;;;;1.92;1.70;;;;;;;;;;6281895;22;20705;-79
2023/11/27 02:28:43;;;;;;;1.67;1.58;;;;;;;;;;6282296;22;20326;-78
2023/11/27 02:31:11;;;;;;;1.80;1.70;;;;;;;;;;6282007;22;20222;-79
2023/11/27 02:33:39;;;;;;;2.15;2.05;;;;;;;;;;6281449;22;20247;-79
2023/11/27 02:36:08;;;;;;;1.50;1.40;;;;;;;;;;6282361;22;20173;-79
2023/11/27 02:38:36;;;;;;;2.47;2.00;;;;;;;;;;6282479;22;20238;-80
2023/11/27 02:41:06;;;;;;;2.55;1.90;;;;;;;;;;6281797;22;20184;-78
2023/11/27 02:43:34;;;;;;;2.63;2.28;;;;;;;;;;6283209;22;20270;-79
2023/11/27 02:46:02;;;;;;;2.28;1.98;;;;;;;;;;6282295;22;20648;-79
2023/11/27 02:48:29;;;;;;;1.85;1.75;;;;;;;;;;6282262;22;20232;-79
2023/11/27 02:50:57;;;;;;;1.83;1.73;;;;;;;;;;6282121;22;20164;-79
2023/11/27 02:53:25;;;;;;;1.98;1.42;;;;;;;;;;6282146;22;20177;-79
2023/11/27 02:55:52;;;;;;;1.50;1.40;;;;;;;;;;6281907;22;20192;-79
2023/11/27 02:58:21;;;;;;;2.75;1.55;;;;;;;;;;6281987;22;20291;-77
2023/11/27 03:00:49;;;;;;;2.17;1.83;;;;;;;;;;6280821;22;20199;-78
2023/11/27 03:03:16;;;;;;;2.10;1.90;;;;;;;;;;6281619;22;20255;-79
2023/11/27 03:05:44;;;;;;;1.92;1.73;;;;;;;;;;6281816;22;20537;-79
2023/11/27 03:08:11;;;;;;;1.85;1.40;;;;;;;;;;6281378;22;20220;-79
2023/11/27 03:10:39;;;;;;;1.88;1.77;;;;;;;;;;6281625;22;20251;-78
2023/11/27 03:13:06;;;;;;;2.03;1.85;;;;;;;;;;6281343;22;20547;-79
2023/11/27 03:15:35;;;;;;;3.85;1.90;;;;;;;;;;6282185;22;20251;-79
2023/11/27 03:18:02;;;;;;;2.55;2.35;;;;;;;;;;6281054;22;20232;-79
2023/11/27 03:20:30;;;;;;;1.95;1.83;;;;;;;;;;6281960;22;20216;-79
2023/11/27 03:22:57;;;;;;;5.15;2.15;;;;;;;;;;6281191;22;20215;-79
2023/11/27 03:25:25;;;;;;;1.42;1.33;;;;;;;;;;6281847;22;20247;-78
2023/11/27 03:27:52;;;;;;;1.73;1.63;;;;;;;;;;6282203;22;20251;-78
2023/11/27 03:30:21;;;;;;;2.25;2.00;;;;;;;;;;6281483;22;20237;-79
2023/11/27 03:32:50;;;;;;;2.03;1.90;;;;;;;;;;6282188;22;20176;-79
2023/11/27 03:35:18;;;;;;;1.60;1.50;;;;;;;;;;6282118;22;20202;-79
2023/11/27 03:37:45;;;;;;;1.60;1.50;;;;;;;;;;6281271;22;20271;-77
2023/11/27 03:40:13;;;;;;;1.90;1.70;;;;;;;;;;6281320;22;20255;-79
2023/11/27 03:42:41;;;;;;;1.58;1.40;;;;;;;;;;6282589;22;20200;-79
2023/11/27 03:45:10;;;;;;;2.50;1.65;;;;;;;;;;6284503;22;20175;-78
2023/11/27 03:47:37;;;;;;;1.27;1.23;;;;;;;;;;6283276;22;20403;-79
2023/11/27 03:50:07;;;;;;;1.95;1.73;;;;;;;;;;6283557;22;20227;-79
2023/11/27 03:52:34;;;;;;;1.15;1.15;;;;;;;;;;6284278;22;20215;-79
2023/11/27 03:55:02;;;;;;;1.80;1.70;;;;;;;;;;6284105;22;20196;-77
2023/11/27 03:57:30;;;;;;;1.20;1.20;;;;;;;;;;6282175;22;20235;-77
2023/11/27 03:59:57;;;;;;;1.90;1.77;;;;;;;;;;6282687;22;20252;-79
2023/11/27 04:02:24;;;;;;;1.70;1.60;;;;;;;;;;6282673;22;20255;-79
2023/11/27 04:04:52;;;;;;;1.42;1.42;;;;;;;;;;6284007;22;20200;-77
2023/11/27 04:07:21;;;;;;;1.60;1.50;;;;;;;;;;6283812;22;20484;-78
2023/11/27 04:09:48;;;;;;;2.63;2.05;;;;;;;;;;6283528;22;20251;-79
2023/11/27 04:12:16;;;;;;;2.20;1.90;;;;;;;;;;6282786;22;20259;-77
2023/11/27 04:14:43;;;;;;;1.77;1.60;;;;;;;;;;6283459;22;20279;-79
2023/11/27 04:17:11;;;;;;;7.38;2.50;;;;;;;;;;6283325;22;20569;-79
2023/11/27 04:19:38;;;;;;;1.77;1.67;;;;;;;;;;6283184;22;20255;-79
2023/11/27 04:22:06;;;;;;;2.42;2.28;;;;;;;;;;6283482;22;20214;-79
2023/11/27 04:24:34;;;;;;;2.40;2.20;;;;;;;;;;6283545;22;20224;-79
2023/11/27 04:27:02;;;;;;;1.98;1.80;;;;;;;;;;6282938;22;20255;-78
2023/11/27 04:29:30;;;;;;;3.35;1.88;;;;;;;;;;6283474;22;20216;-79
2023/11/27 04:31:57;;;;;;;4.90;2.42;;;;;;;;;;6282801;22;20709;-79
2023/11/27 04:34:25;;;;;;;4.35;2.53;;;;;;;;;;6283914;22;20173;-79
2023/11/27 04:36:52;;;;;;;2.70;2.45;;;;;;;;;;6282806;22;20200;-79
2023/11/27 04:39:23;;;;;;;2.20;2.10;;;;;;;;;;6283298;22;20275;-79
2023/11/27 04:41:51;;;;;;;2.33;2.10;;;;;;;;;;6281049;22;20167;-78
2023/11/27 04:44:23;;;;;;;2.38;2.13;;;;;;;;;;6281352;22;20179;-79
2023/11/27 04:46:51;;;;;;;2.58;2.13;;;;;;;;;;6280729;22;20176;-79
2023/11/27 04:49:18;;;;;;;1.88;1.77;;;;;;;;;;6280970;22;20661;-79
2023/11/27 04:51:45;;;;;;;2.72;2.53;;;;;;;;;;6279941;22;20208;-79
2023/11/27 04:54:13;;;;;;;1.85;1.75;;;;;;;;;;6279834;22;20255;-80
2023/11/27 04:56:41;;;;;;;1.60;1.50;;;;;;;;;;6280069;22;20275;-79
2023/11/27 04:59:09;;;;;;;2.58;2.15;;;;;;;;;;6280366;22;20708;-79
2023/11/27 05:01:37;;;;;;;1.25;1.25;;;;;;;;;;6279957;22;20176;-79
2023/11/27 05:04:05;;;;;;;1.88;1.70;;;;;;;;;;6280552;22;20648;-78
2023/11/27 05:06:33;;;;;;;2.47;2.28;;;;;;;;;;6280933;22;20595;-79
2023/11/27 05:09:00;;;;;;;2.60;2.30;;;;;;;;;;6281107;22;20196;-78
2023/11/27 05:11:28;;;;;;;2.38;2.17;;;;;;;;;;6280263;22;20176;-79
2023/11/27 05:13:56;;;;;;;2.20;2.00;;;;;;;;;;6280756;22;20176;-79
2023/11/27 05:16:24;;;;;;;4.20;3.78;;;;;;;;;;6279321;22;20700;-79
2023/11/27 05:18:52;;;;;;;2.95;2.35;;;;;;;;;;6279595;22;20276;-79
2023/11/27 05:21:19;;;;;;;3.40;3.10;;;;;;;;;;6279871;22;20177;-79
2023/11/27 05:23:47;;;;;;;4.43;2.72;;;;;;;;;;6280514;22;20263;-79
2023/11/27 05:26:14;;;;;;;3.00;2.53;;;;;;;;;;6279134;22;20291;-79
2023/11/27 05:28:42;;;;;;;2.72;2.47;;;;;;;;;;6280259;22;20204;-79
2023/11/27 05:31:10;;;;;;;3.50;3.20;;;;;;;;;;6280389;22;20178;-79
2023/11/27 05:33:39;;;;;;;3.08;2.88;;;;;;;;;;6281176;22;20176;-80
2023/11/27 05:36:09;;;;;;;3.13;2.80;;;;;;;;;;6280482;22;20192;-79
2023/11/27 05:38:36;;;;;;;5.57;3.50;;;;;;;;;;6280690;22;20641;-79
2023/11/27 05:41:06;;;;;;;5.72;3.53;;;;;;;;;;6280054;22;20259;-79
2023/11/27 05:43:33;;;;;;;3.65;3.30;;;;;;;;;;6280647;22;20515;-79
2023/11/27 05:46:01;;;;;;;2.55;2.35;;;;;;;;;;6280777;22;20208;-79
2023/11/27 05:48:29;;;;;;;4.25;3.28;;;;;;;;;;6279511;22;20193;-79
2023/11/27 05:50:58;;;;;;;3.40;3.10;;;;;;;;;;6280321;22;20649;-79
2023/11/27 05:53:26;;;;;;;3.40;3.10;;;;;;;;;;6280922;22;20586;-79
2023/11/27 05:55:53;;;;;;;2.53;2.20;;;;;;;;;;6280633;22;20201;-79
2023/11/27 05:58:21;;;;;;;2.20;2.00;;;;;;;;;;6280552;22;20203;-79
2023/11/27 06:00:48;;;;;;;2.42;2.22;;;;;;;;;;6279791;22;20254;-79
2023/11/27 06:03:16;;;;;;;2.63;2.42;;;;;;;;;;6279062;22;20176;-79
2023/11/27 06:05:43;;;;;;;3.47;2.40;;;;;;;;;;6280555;22;20172;-79
2023/11/27 06:08:12;;;;;;;3.65;3.35;;;;;;;;;;6280258;22;20228;-79
2023/11/27 06:10:39;;;;;;;3.33;2.90;;;;;;;;;;6280112;22;20251;-78
2023/11/27 06:13:07;;;;;;;3.25;2.47;;;;;;;;;;6280333;22;20261;-79
2023/11/27 06:15:34;;;;;;;3.13;2.65;;;;;;;;;;6279714;22;20200;-79
2023/11/27 06:18:02;;;;;;;4.47;2.70;;;;;;;;;;6280023;22;20585;-79
2023/11/27 06:20:29;;;;;;;3.55;3.10;;;;;;;;;;6279086;22;20232;-79
2023/11/27 06:22:57;;;;;;;3.50;3.20;;;;;;;;;;6279953;22;20215;-78
2023/11/27 06:25:26;;;;;;;4.95;3.40;;;;;;;;;;6280224;22;20183;-80
2023/11/27 06:27:53;;;;;;;4.55;4.07;;;;;;;;;;6280363;22;20192;-80
2023/11/27 06:30:21;;;;;;;5.55;4.03;;;;;;;;;;6280530;22;20499;-80
2023/11/27 06:32:49;;;;;;;3.47;3.17;;;;;;;;;;6280209;22;20203;-80
2023/11/27 06:35:16;;;;;;;7.18;3.60;;;;;;;;;;6281036;22;20580;-80
2023/11/27 06:37:44;;;;;;;4.45;3.35;;;;;;;;;;6281175;22;20227;-80
2023/11/27 06:40:12;;;;;;;3.88;3.47;;;;;;;;;;6280957;22;20173;-79
2023/11/27 06:42:41;;;;;;;4.25;3.63;;;;;;;;;;6280899;22;20548;-79
2023/11/27 06:45:10;;;;;;;3.67;3.38;;;;;;;;;;6280393;22;20200;-79
2023/11/27 06:47:38;;;;;;;5.28;3.35;;;;;;;;;;6280399;22;20246;-78
2023/11/27 06:50:07;;;;;;;3.17;2.88;;;;;;;;;;6279764;22;20207;-79
2023/11/27 06:52:35;;;;;;;5.50;3.25;;;;;;;;;;6279558;22;20200;-78
2023/11/27 06:55:02;;;;;;;2.92;2.67;;;;;;;;;;6279800;22;20208;-78
2023/11/27 06:57:30;;;;;;;4.38;3.15;;;;;;;;;;6278815;22;20246;-78
2023/11/27 06:59:58;;;;;;;3.28;2.97;;;;;;;;;;6279693;22;20540;-79
2023/11/27 07:02:26;;;;;;;2.97;2.78;;;;;;;;;;6279489;22;20243;-80
2023/11/27 07:04:53;;;;;;;3.53;3.20;;;;;;;;;;6279505;22;20259;-80
2023/11/27 07:07:21;;;;;;;3.95;2.70;;;;;;;;;;6280360;22;20271;-79
2023/11/27 07:09:49;;;;;;;5.28;3.33;;;;;;;;;;6279209;22;20176;-79
2023/11/27 07:12:18;;;;;;;5.78;3.55;;;;;;;;;;6280174;22;20200;-80
2023/11/27 07:14:45;;;;;;;4.85;3.58;;;;;;;;;;6279622;22;20211;-79
2023/11/27 07:17:14;;;;;;;6.25;2.80;;;;;;;;;;6279286;22;20299;-79
2023/11/27 07:19:42;;;;;;;3.90;3.58;;;;;;;;;;6283247;22;20570;-79
2023/11/27 07:22:10;;;;;;;3.65;3.25;;;;;;;;;;6282703;22;20180;-80
2023/11/27 07:24:39;;;;;;;3.70;3.33;;;;;;;;;;6283373;22;20157;-79
2023/11/27 07:27:06;;;;;;;4.38;3.90;;;;;;;;;;6283217;22;20255;-79
2023/11/27 07:29:34;;;;;;;3.90;3.40;;;;;;;;;;6282981;22;20210;-80
2023/11/27 07:32:01;;;;;;;4.93;3.65;;;;;;;;;;6282321;22;20178;-79
2023/11/27 07:34:30;;;;;;;3.50;3.20;;;;;;;;;;6282606;22;20172;-77
2023/11/27 07:36:58;;;;;;;4.25;3.47;;;;;;;;;;6282409;22;20231;-79
2023/11/27 07:39:25;;;;;;;5.88;4.03;;;;;;;;;;6283326;22;20241;-79
2023/11/27 07:41:53;;;;;;;4.95;3.30;;;;;;;;;;6283143;22;20643;-79
2023/11/27 07:44:20;;;;;;;4.95;4.25;;;;;;;;;;6283288;22;20245;-80
2023/11/27 07:46:48;;;;;;;5.25;3.78;;;;;;;;;;6283911;22;20250;-80
2023/11/27 07:49:15;;;;;;;8.07;4.13;;;;;;;;;;6283345;22;20756;-79
2023/11/27 07:51:44;;;;;;;6.00;4.00;;;;;;;;;;6282629;22;20489;-79
2023/11/27 07:54:12;;;;;;;3.90;3.60;;;;;;;;;;6283491;22;20204;-79
2023/11/27 07:56:39;;;;;;;4.75;3.38;;;;;;;;;;6283435;22;20182;-77
2023/11/27 07:59:06;;;;;;;5.43;4.53;;;;;;;;;;6283678;22;20270;-79
2023/11/27 08:01:34;;;;;;;6.63;3.80;;;;;;;;;;6283314;22;20255;-80
2023/11/27 08:04:02;;;;;;;4.32;3.50;;;;;;;;;;6282015;22;20641;-78
2023/11/27 08:06:29;;;;;;;3.30;3.00;;;;;;;;;;6282809;22;20176;-77
2023/11/27 08:08:58;;;;;;;5.85;3.40;;;;;;;;;;6282874;22;20853;-78
2023/11/27 08:11:33;;;;;;;4.35;3.22;;;;;;;;;;6283249;22;20176;-79
2023/11/27 08:14:01;;;;;;;5.13;3.88;;;;;;;;;;6283415;22;20700;-80
2023/11/27 08:16:28;;;;;;;4.78;3.40;;;;;;;;;;6283750;22;20680;-79
2023/11/27 08:18:55;;;;;;;4.18;3.17;;;;;;;;;;6283052;22;20256;-79
2023/11/27 08:21:24;;;;;;;5.70;3.47;;;;;;;;;;6283056;22;20578;-79
2023/11/27 08:23:52;;;;;;;9.35;3.95;;;;;;;;;;6283254;22;20184;-79
2023/11/27 08:26:21;;;;;;;7.18;3.78;;;;;;;;;;6282583;22;20228;-78
2023/11/27 08:28:48;;;;;;;7.13;4.20;;;;;;;;;;6283057;22;20214;-78
2023/11/27 08:31:19;;;;;;;4.63;3.13;;;;;;;;;;6280232;22;20252;-78
2023/11/27 08:33:46;;;;;;;5.72;4.13;;;;;;;;;;6281690;22;20156;-78
2023/11/27 08:36:14;;;;;;;5.03;3.70;;;;;;;;;;6281696;22;20179;-78
2023/11/27 08:38:41;;;;;;;3.10;2.67;;;;;;;;;;6281395;22;20238;-79
2023/11/27 08:41:11;;;;;;;3.72;3.40;;;;;;;;;;6282062;22;20196;-78
2023/11/27 08:43:41;;;;;;;6.95;3.75;;;;;;;;;;6281415;22;20211;-79
2023/11/27 08:46:09;;;;;;;6.68;3.70;;;;;;;;;;6281722;22;20179;-78
2023/11/27 08:48:37;;;;;;;3.97;3.13;;;;;;;;;;6281103;22;20227;-78
2023/11/27 08:51:08;;;;;;;3.47;3.08;;;;;;;;;;6282093;22;20234;-79
2023/11/27 08:53:36;;;;;;;6.00;3.33;;;;;;;;;;6281318;22;20176;-80
2023/11/27 08:56:04;;;;;;;4.35;3.53;;;;;;;;;;6281620;22;20574;-79
2023/11/27 08:58:34;;;;;;;4.43;4.03;;;;;;;;;;6280842;22;20199;-79
2023/11/27 09:01:05;;;;;;;6.15;3.58;;;;;;;;;;6282762;22;20157;-79
2023/11/27 09:03:32;;;;;;;5.38;4.22;;;;;;;;;;6281630;22;20186;-79
2023/11/27 09:06:00;;;;;;;5.90;3.35;;;;;;;;;;6282148;22;20211;-79
2023/11/27 09:08:27;;;;;;;4.38;3.33;;;;;;;;;;6282930;22;20203;-79
2023/11/27 09:10:55;;;;;;;3.88;3.33;;;;;;;;;;6281752;22;20204;-79
2023/11/27 09:13:22;;;;;;;3.28;2.92;;;;;;;;;;6281638;22;20578;-78
2023/11/27 09:15:49;;;;;;;5.05;2.97;;;;;;;;;;6281197;22;20229;-78
2023/11/27 09:18:17;;;;;;;4.63;4.22;;;;;;;;;;6280992;22;20288;-79
2023/11/27 09:20:45;;;;;;;5.10;3.60;;;;;;;;;;6280408;22;20686;-79
2023/11/27 09:23:12;;;;;;;6.82;3.38;;;;;;;;;;6280690;22;20255;-79
2023/11/27 09:25:40;;;;;;;3.70;3.30;;;;;;;;;;6281458;22;20569;-79
2023/11/27 09:28:07;;;;;;;3.92;2.95;;;;;;;;;;6281220;22;20271;-79
2023/11/27 09:30:35;;;;;;;4.85;3.55;;;;;;;;;;6281211;22;20561;-79
2023/11/27 09:33:04;;;;;;;3.75;3.45;;;;;;;;;;6281367;22;20188;-79
2023/11/27 09:35:33;;;;;;;5.90;3.40;;;;;;;;;;6281979;22;20176;-78
2023/11/27 09:38:00;;;;;;;4.78;3.65;;;;;;;;;;6280907;22;20283;-80
2023/11/27 09:40:28;;;;;;;3.45;3.08;;;;;;;;;;6280090;22;20176;-79
2023/11/27 09:42:55;;;;;;;6.40;3.58;;;;;;;;;;6281263;22;20203;-80
2023/11/27 09:45:23;;;;;;;3.63;3.17;;;;;;;;;;6279946;22;20566;-79
2023/11/27 09:47:51;;;;;;;4.90;4.07;;;;;;;;;;6281074;22;20224;-79
2023/11/27 09:50:21;;;;;;;4.22;3.30;;;;;;;;;;6281572;22;20179;-77
2023/11/27 09:53:01;;;;;;;5.28;3.50;;;;;;;;;;6281986;22;20196;-79
2023/11/27 09:55:31;;;;;;;5.88;3.75;;;;;;;;;;6281992;22;20188;-78
2023/11/27 09:57:59;;;;;;;5.53;3.47;;;;;;;;;;6281345;22;20271;-80
2023/11/27 10:00:27;;;;;;;5.80;4.30;;;;;;;;;;6281765;22;20176;-79
2023/11/27 10:02:55;;;;;;;7.60;3.55;;;;;;;;;;6282010;22;20172;-78
2023/11/27 10:05:23;;;;;;;4.30;3.90;;;;;;;;;;6281719;22;20759;-79
2023/11/27 10:07:54;;;;;;;5.85;3.60;;;;;;;;;;6282132;22;20228;-79
2023/11/27 10:10:26;;;;;;;4.47;3.78;;;;;;;;;;6280483;22;20236;-77
2023/11/27 10:12:57;;;;;;;3.92;3.08;;;;;;;;;;6280334;22;20474;-79
2023/11/27 10:15:26;;;;;;;4.07;3.58;;;;;;;;;;6280829;22;20243;-79
2023/11/27 10:17:54;;;;;;;4.50;3.35;;;;;;;;;;6281248;22;20246;-80
2023/11/27 10:20:25;;;;;;;4.97;3.90;;;;;;;;;;6281386;22;20251;-77
2023/11/27 10:22:54;;;;;;;5.03;4.07;;;;;;;;;;6281253;22;20637;-78
2023/11/27 10:25:23;;;;;;;3.97;3.60;;;;;;;;;;6281187;22;20172;-78
2023/11/27 10:27:58;;;;;;;5.53;4.03;;;;;;;;;;6280564;22;20192;-80
2023/11/27 10:30:27;;;;;;;3.78;3.47;;;;;;;;;;6280722;22;20160;-80
2023/11/27 10:32:55;;;;;;;6.80;3.50;;;;;;;;;;6280418;22;20630;-80
2023/11/27 10:35:25;;;;;;;3.42;3.13;;;;;;;;;;6280897;22;20251;-79
2023/11/27 10:37:55;;;;;;;3.72;3.22;;;;;;;;;;6279206;22;20196;-78
2023/11/27 10:40:26;;;;;;;4.20;3.40;;;;;;;;;;6279670;22;20197;-78
2023/11/27 10:42:58;;;;;;;3.20;2.90;;;;;;;;;;6280699;22;20244;-79
2023/11/27 10:45:28;;;;;;;4.13;3.72;;;;;;;;;;6281061;22;20163;-79
2023/11/27 10:47:56;;;;;;;3.10;2.80;;;;;;;;;;6279608;22;20679;-79
2023/11/27 10:50:23;;;;;;;3.17;2.80;;;;;;;;;;6281222;22;20661;-79
2023/11/27 10:52:55;;;;;;;3.50;3.17;;;;;;;;;;6280270;22;20233;-78
2023/11/27 10:55:22;;;;;;;2.90;2.70;;;;;;;;;;6281309;22;20199;-78
2023/11/27 10:57:50;;;;;;;2.50;2.30;;;;;;;;;;6280752;22;20721;-79
2023/11/27 11:00:28;;;;;;;2.95;2.75;;;;;;;;;;6280509;22;20222;-78
2023/11/27 11:03:02;;;;;;;2.88;2.67;;;;;;;;;;6281059;22;20161;-79
2023/11/27 11:05:35;;;;;;;2.55;2.35;;;;;;;;;;6280942;22;20160;-78
2023/11/27 11:08:07;;;;;;;2.63;2.42;;;;;;;;;;6282059;22;20200;-78
2023/11/27 11:10:36;;;;;;;1.80;1.70;;;;;;;;;;6280753;22;20214;-78
2023/11/27 11:13:07;;;;;;;2.33;2.08;;;;;;;;;;6280359;22;20641;-78
2023/11/27 11:15:45;;;;;;;2.78;2.58;;;;;;;;;;6279895;22;20187;-79
2023/11/27 11:18:17;;;;;;;2.17;2.08;;;;;;;;;;6281022;22;20649;-80
2023/11/27 11:21:14;;;;;;;2.50;2.30;;;;;;;;;;6280190;22;20235;-80
2023/11/27 11:23:49;;;;;;;2.83;2.10;;;;;;;;;;6279593;22;20184;-79
2023/11/27 11:26:48;;;;;;;2.22;2.03;;;;;;;;;;6280016;22;20164;-80
2023/11/27 11:29:33;;;;;;;2.92;1.90;;;;;;;;;;6277495;22;20219;-80
2023/11/27 11:32:03;;;;;;;2.80;2.53;;;;;;;;;;6278532;22;20164;-78
2023/11/27 11:34:38;;;;;;;2.28;1.75;;;;;;;;;;6278962;22;20156;-79
2023/11/27 11:37:11;;;;;;;2.65;2.47;;;;;;;;;;6279050;22;20163;-81
2023/11/27 11:39:45;;;;;;;3.03;2.00;;;;;;;;;;6279297;22;20180;-79
2023/11/27 11:42:17;;;;;;;3.28;1.98;;;;;;;;;;6278874;22;20243;-79
2023/11/27 11:45:05;;;;;;;2.53;1.90;;;;;;;;;;6279448;22;20157;-79
2023/11/27 11:47:33;;;;;;;2.05;1.95;;;;;;;;;;6279816;22;20197;-79
2023/11/27 11:50:28;;;;;;;1.98;1.88;;;;;;;;;;6279240;22;20219;-79
2023/11/27 11:52:57;;;;;;;2.42;2.22;;;;;;;;;;6279706;22;20161;-81
2023/11/27 11:55:34;;;;;;;2.13;1.67;;;;;;;;;;6278097;22;20275;-80
2023/11/27 11:58:06;;;;;;;2.47;1.60;;;;;;;;;;6279712;22;20228;-79
2023/11/27 12:00:43;;;;;;;2.20;1.83;;;;;;;;;;6278423;22;20228;-81
2023/11/27 12:03:15;;;;;;;1.73;1.63;;;;;;;;;;6277953;22;20168;-80
2023/11/27 12:05:46;;;;;;;3.28;2.58;;;;;;;;;;6280926;22;20168;-81
2023/11/27 12:08:14;;;;;;;2.72;2.25;;;;;;;;;;6280908;22;20192;-80
2023/11/27 12:10:43;;;;;;;1.98;1.80;;;;;;;;;;6279618;22;20179;-80
2023/11/27 12:13:11;;;;;;;2.55;2.35;;;;;;;;;;6280752;22;20251;-81
2023/11/27 12:15:38;;;;;;;2.53;2.33;;;;;;;;;;6281475;22;20255;-81
2023/11/27 12:18:09;;;;;;;2.83;2.30;;;;;;;;;;6281292;22;20275;-79
2023/11/27 12:20:37;;;;;;;2.22;2.13;;;;;;;;;;6281428;22;20207;-81
2023/11/27 12:23:05;;;;;;;2.03;1.92;;;;;;;;;;6280891;22;20676;-79
2023/11/27 12:25:33;;;;;;;1.90;1.80;;;;;;;;;;6280873;22;20259;-80
2023/11/27 12:28:06;;;;;;;1.90;1.80;;;;;;;;;;6280546;22;20271;-80
2023/11/27 12:30:34;;;;;;;2.33;2.10;;;;;;;;;;6281050;22;20153;-79
2023/11/27 12:33:04;;;;;;;3.05;1.80;;;;;;;;;;6281237;22;20176;-80
2023/11/27 12:35:32;;;;;;;1.98;1.88;;;;;;;;;;6280471;22;20177;-79
2023/11/27 12:38:05;;;;;;;1.73;1.63;;;;;;;;;;6280693;22;20275;-79
2023/11/27 12:40:33;;;;;;;3.53;1.50;;;;;;;;;;6281246;22;20657;-79
2023/11/27 12:43:06;;;;;;;1.90;1.80;;;;;;;;;;6279760;22;20210;-79
2023/11/27 12:45:36;;;;;;;2.15;1.88;;;;;;;;;;6281199;22;20157;-80
2023/11/27 12:48:07;;;;;;;1.75;1.65;;;;;;;;;;6280838;22;20251;-79
2023/11/27 12:50:39;;;;;;;1.98;1.58;;;;;;;;;;6280738;22;20180;-80
2023/11/27 12:53:07;;;;;;;1.45;1.33;;;;;;;;;;6280663;22;20526;-80
2023/11/27 12:55:36;;;;;;;1.40;1.30;;;;;;;;;;6280313;22;20226;-81
2023/11/27 12:58:10;;;;;;;1.77;1.65;;;;;;;;;;6280616;22;20196;-79
2023/11/27 13:00:39;;;;;;;1.73;1.30;;;;;;;;;;6280826;22;20324;-80
2023/11/27 13:03:12;;;;;;;1.40;1.30;;;;;;;;;;6279865;22;20251;-80
2023/11/27 13:05:39;;;;;;;1.40;1.30;;;;;;;;;;6281001;22;20160;-82
2023/11/27 13:08:07;;;;;;;1.50;1.40;;;;;;;;;;6279518;22;20204;-81
2023/11/27 13:10:42;;;;;;;1.45;1.30;;;;;;;;;;6279142;22;20177;-82
2023/11/27 13:13:12;;;;;;;1.48;1.38;;;;;;;;;;6278864;22;20569;-80
2023/11/27 13:15:40;;;;;;;1.20;1.10;;;;;;;;;;6278992;22;20192;-82
2023/11/27 13:18:12;;;;;;;1.15;1.15;;;;;;;;;;6277964;22;20272;-83
2023/11/27 13:20:39;;;;;;;1.35;1.25;;;;;;;;;;6278979;22;20369;-83
2023/11/27 13:23:07;;;;;;;1.00;1.00;;;;;;;;;;6279202;22;20180;-81
2023/11/27 13:25:37;;;;;;;1.35;1.08;;;;;;;;;;6279377;22;20640;-82
2023/11/27 13:28:07;;;;;;;1.80;1.30;;;;;;;;;;6279286;22;20519;-80
2023/11/27 13:30:36;;;;;;;1.10;1.05;;;;;;;;;;6279720;22;20215;-81
2023/11/27 13:33:10;;;;;;;1.13;1.13;;;;;;;;;;6279790;22;20259;-81
2023/11/27 13:35:40;;;;;;;0.95;0.95;;;;;;;;;;6280323;22;20244;-81
2023/11/27 13:38:15;;;;;;;1.08;1.00;;;;;;;;;;6278808;22;20258;-82
2023/11/27 13:40:46;;;;;;;0.88;0.88;;;;;;;;;;6279095;22;20184;-82
2023/11/27 13:43:14;;;;;;;0.95;0.95;;;;;;;;;;6278399;22;20206;-82
2023/11/27 13:45:46;;;;;;;0.98;0.98;;;;;;;;;;6279215;22;20267;-80
2023/11/27 13:48:15;;;;;;;1.33;1.23;;;;;;;;;;6278923;22;20195;-82
2023/11/27 13:50:43;;;;;;;1.05;1.05;;;;;;;;;;6278702;22;20172;-81
2023/11/27 13:53:15;;;;;;;1.20;1.13;;;;;;;;;;6279417;22;20176;-82
2023/11/27 13:55:46;;;;;;;1.25;1.15;;;;;;;;;;6279340;22;20598;-82
2023/11/27 13:58:14;;;;;;;1.17;1.08;;;;;;;;;;6279645;22;20205;-82
2023/11/27 14:00:48;;;;;;;1.25;1.08;;;;;;;;;;6279219;22;20326;-83
2023/11/27 14:03:18;;;;;;;1.02;1.00;;;;;;;;;;6279010;22;20161;-83
2023/11/27 14:05:49;;;;;;;1.85;1.20;;;;;;;;;;6278565;22;20199;-83
2023/11/27 14:08:19;;;;;;;1.25;1.17;;;;;;;;;;6279164;22;20206;-84
2023/11/27 14:11:15;;;;;;;1.30;1.20;;;;;;;;;;6280085;22;20486;-83
2023/11/27 14:13:46;;;;;;;1.45;1.35;;;;;;;;;;6279665;22;20194;-82
2023/11/27 14:16:16;;;;;;;0.98;0.98;;;;;;;;;;6280228;22;20207;-83
2023/11/27 14:18:51;;;;;;;1.30;1.20;;;;;;;;;;6280744;22;20215;-84
2023/11/27 14:24:12;;;;;;;1.55;1.35;;;;;;;;;;6280327;22;20207;-84
2023/11/27 14:29:27;;;;;;;1.00;1.00;;;;;;;;;;6279544;22;20203;-83
2023/11/27 14:31:57;;;;;;;0.88;0.88;;;;;;;;;;6280609;22;20171;-83
2023/11/27 14:34:25;;;;;;;1.13;1.10;;;;;;;;;;6280039;22;20173;-84
2023/11/27 14:36:53;;;;;;;0.93;0.93;;;;;;;;;;6279767;22;20183;-83
2023/11/27 14:39:21;;;;;;;1.33;1.25;;;;;;;;;;6279693;22;20231;-83
2023/11/27 14:41:51;;;;;;;1.63;1.52;;;;;;;;;;6280149;22;20193;-83
2023/11/27 14:44:20;;;;;;;1.60;1.17;;;;;;;;;;6279594;22;20176;-81
2023/11/27 14:46:51;;;;;;;1.50;1.40;;;;;;;;;;6278832;22;20180;-80
2023/11/27 14:49:20;;;;;;;1.70;1.60;;;;;;;;;;6278611;22;20192;-81
2023/11/27 14:51:49;;;;;;;1.60;1.50;;;;;;;;;;6279181;22;20644;-82
2023/11/27 14:54:17;;;;;;;2.53;1.77;;;;;;;;;;6279048;22;20172;-82
2023/11/27 14:56:45;;;;;;;2.35;1.77;;;;;;;;;;6278564;22;20176;-82
2023/11/27 14:59:13;;;;;;;1.40;1.30;;;;;;;;;;6279069;22;20695;-82